createdAt,value
2022-10-16T00:01:19.312Z,38511.16
2022-10-16T00:03:48.522Z,37838.56
2022-10-16T00:06:17.002Z,37837.91
2022-10-16T00:08:44.911Z,37834.34
2022-10-16T00:11:14.588Z,37502.59
2022-10-16T00:13:45.023Z,37499.38
2022-10-16T00:16:13.629Z,36827.53
2022-10-16T00:18:41.705Z,36157.88
2022-10-16T00:21:11.406Z,36152.59
2022-10-16T00:23:39.383Z,36151.66
2022-10-16T00:26:10.376Z,35817.94
2022-10-16T00:28:38.766Z,35481.47
2022-10-16T00:31:10.040Z,35145.88
2022-10-16T00:33:38.834Z,35143.47
2022-10-16T00:36:08.605Z,35474.75
2022-10-16T00:38:36.083Z,34477.16
2022-10-16T00:41:03.595Z,34807.94
2022-10-16T00:43:41.191Z,34476.56
2022-10-16T00:46:16.916Z,34805.53
2022-10-16T00:48:49.034Z,34802.22
2022-10-16T00:51:17.140Z,34801.34
2022-10-16T00:53:44.717Z,35464.97
2022-10-16T00:56:12.643Z,35128.97
2022-10-16T00:58:40.208Z,35122.00
2022-10-16T01:01:07.832Z,35119.28
2022-10-16T01:03:38.952Z,34450.13
2022-10-16T01:06:18.657Z,34784.25
2022-10-16T01:08:56.101Z,34449.22
2022-10-16T01:11:32.470Z,34110.97
2022-10-16T01:14:06.783Z,33780.03
2022-10-16T01:16:36.874Z,34108.31
2022-10-16T01:19:13.884Z,33437.50
2022-10-16T01:21:44.341Z,33439.50
2022-10-16T01:24:21.477Z,33103.06
2022-10-16T01:27:07.130Z,32435.31
2022-10-16T01:29:39.152Z,32103.34
2022-10-16T01:32:12.773Z,32103.34
2022-10-16T01:34:47.457Z,31766.63
2022-10-16T01:37:20.508Z,31769.38
2022-10-16T01:39:51.344Z,31100.56
2022-10-16T01:42:24.310Z,31100.56
2022-10-16T01:44:54.322Z,30765.47
2022-10-16T01:47:26.036Z,30764.69
2022-10-16T01:49:55.777Z,30767.09
2022-10-16T01:52:27.827Z,30095.78
2022-10-16T01:54:59.956Z,30431.16
2022-10-16T01:57:30.219Z,30431.69
2022-10-16T02:00:03.151Z,30095.78
2022-10-16T02:02:33.600Z,30095.28
2022-10-16T02:05:09.470Z,30098.41
2022-10-16T02:07:37.019Z,29764.81
2022-10-16T02:10:05.083Z,29766.09
2022-10-16T02:12:37.622Z,29435.25
2022-10-16T02:15:05.441Z,29100.28
2022-10-16T02:17:34.229Z,29440.38
2022-10-16T02:20:02.332Z,29443.94
2022-10-16T02:22:34.091Z,29448.28
2022-10-16T02:25:06.663Z,29783.16
2022-10-16T02:27:43.291Z,30121.63
2022-10-16T02:30:16.278Z,30463.34
2022-10-16T02:32:46.993Z,30800.94
2022-10-16T02:35:16.043Z,31472.41
2022-10-16T02:37:44.463Z,31478.41
2022-10-16T02:40:13.371Z,32151.38
2022-10-16T02:42:42.692Z,32823.28
2022-10-16T02:45:12.687Z,32829.25
2022-10-16T02:47:40.299Z,32495.03
2022-10-16T02:50:08.524Z,33171.69
2022-10-16T02:52:36.074Z,33843.88
2022-10-16T02:55:03.623Z,34514.56
2022-10-16T02:57:32.249Z,34516.34
2022-10-16T03:00:01.286Z,34178.94
2022-10-16T03:02:28.758Z,34517.25
2022-10-16T03:04:56.249Z,34524.38
2022-10-16T03:07:24.176Z,34526.16
2022-10-16T03:09:51.811Z,35204.91
2022-10-16T03:12:19.300Z,35872.50
2022-10-16T03:14:46.801Z,36205.78
2022-10-16T03:17:17.675Z,35868.19
2022-10-16T03:19:45.226Z,36209.50
2022-10-16T03:22:12.746Z,35874.97
2022-10-16T03:24:40.354Z,36551.22
2022-10-16T03:27:07.876Z,36888.31
2022-10-16T03:29:35.352Z,37555.75
2022-10-16T03:32:03.342Z,37553.50
2022-10-16T03:34:32.271Z,37219.31
2022-10-16T03:36:59.714Z,36879.44
2022-10-16T03:39:28.039Z,37211.03
2022-10-16T03:41:55.493Z,36535.22
2022-10-16T03:44:23.223Z,36531.44
2022-10-16T03:46:50.687Z,35861.09
2022-10-16T03:49:18.138Z,35866.34
2022-10-16T03:51:47.001Z,36199.25
2022-10-16T03:54:14.639Z,35866.34
2022-10-16T03:56:42.078Z,35860.78
2022-10-16T03:59:09.566Z,35191.91
2022-10-16T04:01:37.045Z,35870.03
2022-10-16T04:04:04.499Z,35867.56
2022-10-16T04:06:31.943Z,36537.75
2022-10-16T04:09:00.908Z,36534.28
2022-10-16T04:11:28.419Z,36866.78
2022-10-16T04:13:56.084Z,36527.69
2022-10-16T04:16:23.556Z,35858.31
2022-10-16T04:18:51.006Z,35854.00
2022-10-16T04:21:18.485Z,35512.59
2022-10-16T04:23:45.975Z,35846.00
2022-10-16T04:26:14.755Z,35508.34
2022-10-16T04:28:42.387Z,35173.44
2022-10-16T04:31:09.851Z,34166.28
2022-10-16T04:33:37.550Z,34503.88
2022-10-16T04:36:05.967Z,34168.63
2022-10-16T04:38:33.746Z,34170.97
2022-10-16T04:41:01.427Z,35179.19
2022-10-16T04:43:30.239Z,34837.00
2022-10-16T04:45:57.718Z,34503.88
2022-10-16T04:48:25.298Z,35506.50
2022-10-16T04:50:55.238Z,35168.91
2022-10-16T04:53:22.987Z,34833.13
2022-10-16T04:55:51.294Z,35167.09
2022-10-16T04:58:18.759Z,35165.56
2022-10-16T05:00:47.927Z,34831.91
2022-10-16T05:03:15.522Z,34830.72
2022-10-16T05:05:44.666Z,34497.34
2022-10-16T05:08:12.205Z,34160.41
2022-10-16T05:10:39.664Z,34498.81
2022-10-16T05:13:07.129Z,34499.13
2022-10-16T05:15:34.583Z,34498.81
2022-10-16T05:18:03.642Z,34831.91
2022-10-16T05:20:31.232Z,34499.72
2022-10-16T05:22:58.747Z,34831.91
2022-10-16T05:25:26.354Z,34501.22
2022-10-16T05:27:53.784Z,34169.81
2022-10-16T05:30:21.727Z,34838.22
2022-10-16T05:32:49.989Z,34842.72
2022-10-16T05:35:19.969Z,35513.22
2022-10-16T05:37:48.062Z,35173.75
2022-10-16T05:40:17.158Z,35507.72
2022-10-16T05:42:44.654Z,35508.03
2022-10-16T05:45:13.499Z,35171.91
2022-10-16T05:47:41.307Z,34831.31
2022-10-16T05:50:09.630Z,35170.72
2022-10-16T05:52:38.447Z,34837.00
2022-10-16T05:55:06.851Z,34499.41
2022-10-16T05:57:34.304Z,34502.69
2022-10-16T06:00:01.864Z,34494.38
2022-10-16T06:02:29.306Z,34499.72
2022-10-16T06:04:56.757Z,33163.41
2022-10-16T06:07:25.529Z,33840.97
2022-10-16T06:09:55.226Z,33850.28
2022-10-16T06:12:22.885Z,34192.19
2022-10-16T06:14:50.375Z,35206.44
2022-10-16T06:17:18.229Z,36220.38
2022-10-16T06:19:45.791Z,36891.78
2022-10-16T06:22:13.362Z,36893.38
2022-10-16T06:24:40.856Z,36895.28
2022-10-16T06:27:09.639Z,36904.78
2022-10-16T06:29:37.113Z,37239.78
2022-10-16T06:32:04.650Z,37244.25
2022-10-16T06:34:32.128Z,37586.03
2022-10-16T06:36:59.591Z,37929.88
2022-10-16T06:39:27.071Z,39282.28
2022-10-16T06:41:54.586Z,39621.81
2022-10-16T06:44:23.525Z,39959.34
2022-10-16T06:46:51.020Z,39291.03
2022-10-16T06:49:23.262Z,38964.47
2022-10-16T06:51:50.968Z,39307.84
2022-10-16T06:54:18.810Z,39661.50
2022-10-16T06:56:46.841Z,40684.13
2022-10-16T06:59:14.298Z,42050.88
2022-10-16T07:01:43.106Z,44089.13
2022-10-16T07:04:10.544Z,46478.78
2022-10-16T07:06:38.021Z,48856.44
2022-10-16T07:09:07.833Z,51241.25
2022-10-16T07:11:35.713Z,52593.25
2022-10-16T07:14:03.314Z,53955.88
2022-10-16T07:16:32.589Z,54299.59
2022-10-16T07:19:04.010Z,54629.06
2022-10-16T07:21:36.398Z,52940.38
2022-10-16T07:24:05.615Z,53283.97
2022-10-16T07:26:35.922Z,54662.84
2022-10-16T07:29:04.378Z,54670.25
2022-10-16T07:31:32.502Z,55010.56
2022-10-16T07:34:01.925Z,55005.44
2022-10-16T07:36:29.527Z,54669.78
2022-10-16T07:39:00.109Z,56030.75
2022-10-16T07:41:28.754Z,56366.41
2022-10-16T07:43:57.403Z,56024.09
2022-10-16T07:46:24.995Z,56025.53
2022-10-16T07:48:52.810Z,55687.03
2022-10-16T07:51:23.707Z,55689.88
2022-10-16T07:53:51.997Z,55352.78
2022-10-16T07:56:20.362Z,55361.66
2022-10-16T07:58:50.199Z,55024.97
2022-10-16T08:01:19.113Z,55719.06
2022-10-16T08:03:48.599Z,54363.50
2022-10-16T08:06:16.437Z,54377.75
2022-10-16T08:08:45.235Z,59515.13
2022-10-16T08:11:12.669Z,65339.03
2022-10-16T08:13:40.192Z,70157.38
2022-10-16T08:16:08.781Z,76348.16
2022-10-16T08:18:37.139Z,82183.91
2022-10-16T08:21:05.770Z,89422.06
2022-10-16T08:23:34.681Z,85621.59
2022-10-16T08:26:08.221Z,84584.19
2022-10-16T08:28:35.786Z,88725.72
2022-10-16T08:31:10.959Z,90118.59
2022-10-16T08:33:38.761Z,92208.88
2022-10-16T08:36:07.180Z,93945.63
2022-10-16T08:38:35.044Z,100204.88
2022-10-16T08:41:19.692Z,106818.69
2022-10-16T08:44:05.241Z,115161.41
2022-10-16T08:46:49.612Z,120070.66
2022-10-16T08:49:18.822Z,126374.19
2022-10-16T08:51:47.451Z,129523.56
2022-10-16T08:54:24.950Z,138961.31
2022-10-16T08:56:56.404Z,146695.78
2022-10-16T08:59:23.915Z,154853.88
2022-10-16T09:01:53.751Z,154892.81
2022-10-16T09:04:47.614Z,154843.53
2022-10-16T09:07:22.670Z,154822.75
2022-10-16T09:10:02.238Z,154885.06
2022-10-16T09:12:39.026Z,154874.66
2022-10-16T09:15:18.767Z,154869.50
2022-10-16T09:17:54.110Z,154874.66
2022-10-16T09:20:31.396Z,154948.56
2022-10-16T09:23:13.159Z,154983.56
2022-10-16T09:25:43.360Z,155061.41
2022-10-16T09:28:12.583Z,155053.59
2022-10-16T09:30:41.572Z,155066.56
2022-10-16T09:33:11.111Z,155048.44
2022-10-16T09:35:41.063Z,155043.22
2022-10-16T09:38:09.396Z,155032.88
2022-10-16T09:40:39.399Z,155032.88
2022-10-16T09:43:22.598Z,155040.63
2022-10-16T09:45:57.957Z,155086.03
2022-10-16T09:48:28.726Z,155086.03
2022-10-16T09:51:01.623Z,155126.31
2022-10-16T09:53:41.235Z,155144.44
2022-10-16T09:56:11.711Z,155144.44
2022-10-16T09:58:51.119Z,155176.88
2022-10-16T10:01:18.602Z,155187.25
2022-10-16T10:03:47.463Z,155224.84
2022-10-16T10:06:23.129Z,155298.84
2022-10-16T10:09:03.887Z,155327.44
2022-10-16T10:11:43.494Z,155343.03
2022-10-16T10:14:37.058Z,155358.63
2022-10-16T10:17:13.031Z,155344.34
2022-10-16T10:19:42.294Z,155326.16
2022-10-16T10:22:20.610Z,155331.38
2022-10-16T10:24:57.999Z,155320.94
2022-10-16T10:27:33.356Z,155328.75
2022-10-16T10:30:12.639Z,155326.16
2022-10-16T10:32:52.041Z,155313.19
2022-10-16T10:35:24.848Z,155319.69
2022-10-16T10:38:04.478Z,155332.66
2022-10-16T10:40:45.013Z,155337.81
2022-10-16T10:43:22.437Z,155362.47
2022-10-16T10:45:56.664Z,155394.94
2022-10-16T10:48:42.929Z,155454.69
2022-10-16T10:51:14.771Z,155544.31
2022-10-16T10:53:51.294Z,155563.81
2022-10-16T10:56:39.386Z,155617.06
2022-10-16T10:59:23.711Z,155650.81
2022-10-16T11:01:58.704Z,155708.03
2022-10-16T11:04:50.344Z,155714.50
2022-10-16T11:07:22.517Z,155700.16
2022-10-16T11:09:55.568Z,155672.88
2022-10-16T11:12:27.964Z,155669.00
2022-10-16T11:15:02.866Z,155648.19
2022-10-16T11:17:36.395Z,155601.47
2022-10-16T11:20:13.748Z,155620.91
2022-10-16T11:22:47.318Z,155618.31
2022-10-16T11:25:18.464Z,155658.63
2022-10-16T11:27:49.989Z,155732.69
2022-10-16T11:30:22.578Z,155739.22
2022-10-16T11:33:04.671Z,155719.69
2022-10-16T11:35:42.908Z,155658.63
2022-10-16T11:38:17.699Z,155657.31
2022-10-16T11:40:52.090Z,155661.19
2022-10-16T11:43:27.001Z,155627.44
2022-10-16T11:45:58.402Z,155643.03
2022-10-16T11:48:34.465Z,155676.78
2022-10-16T11:51:10.133Z,155704.06
2022-10-16T11:53:47.162Z,155705.38
2022-10-16T11:56:17.648Z,155692.38
2022-10-16T11:58:57.244Z,155804.16
2022-10-16T12:01:31.157Z,155901.72
2022-10-16T12:04:15.064Z,155840.53
2022-10-16T12:06:46.170Z,155758.69
2022-10-16T12:09:21.730Z,155645.59
2022-10-16T12:11:49.269Z,155614.44
2022-10-16T12:14:24.102Z,155609.22
2022-10-16T12:16:57.263Z,155670.31
2022-10-16T12:19:27.652Z,155709.31
2022-10-16T12:21:58.047Z,155747.00
2022-10-16T12:24:37.929Z,155734.00
2022-10-16T12:27:08.030Z,155706.72
2022-10-16T12:29:39.336Z,155702.75
2022-10-16T12:32:45.226Z,155671.63
2022-10-16T12:35:22.616Z,155679.38
2022-10-16T12:37:50.642Z,155654.72
2022-10-16T12:40:28.721Z,155630.03
2022-10-16T12:42:56.206Z,155650.81
2022-10-16T12:45:31.999Z,155643.03
2022-10-16T12:48:00.919Z,155614.44
2022-10-16T12:50:33.471Z,155656.00
2022-10-16T12:53:02.553Z,155648.19
2022-10-16T12:55:37.664Z,155628.75
2022-10-16T12:58:24.995Z,155678.09
2022-10-16T13:00:58.762Z,155767.75
2022-10-16T13:03:45.726Z,155774.28
2022-10-16T13:06:30.732Z,155747.00
2022-10-16T13:09:15.234Z,155710.63
2022-10-16T13:12:02.814Z,155739.22
2022-10-16T13:15:01.165Z,155714.50
2022-10-16T13:17:39.878Z,155728.78
2022-10-16T13:20:19.391Z,155710.63
2022-10-16T13:22:57.622Z,155697.59
2022-10-16T13:25:34.867Z,155694.97
2022-10-16T13:28:05.912Z,155684.59
2022-10-16T13:30:43.486Z,155692.38
2022-10-16T13:33:17.571Z,155679.38
2022-10-16T13:35:52.276Z,155665.09
2022-10-16T13:38:23.264Z,155652.09
2022-10-16T13:40:53.596Z,155630.03
2022-10-16T13:43:23.299Z,155627.44
2022-10-16T13:45:59.470Z,155572.88
2022-10-16T13:48:27.508Z,155524.81
2022-10-16T13:51:09.398Z,155518.34
2022-10-16T13:53:38.339Z,155424.81
2022-10-16T13:56:08.752Z,155358.63
2022-10-16T13:58:36.219Z,155302.75
2022-10-16T14:01:07.563Z,155297.53
2022-10-16T14:03:36.851Z,155313.19
2022-10-16T14:06:09.885Z,155313.19
2022-10-16T14:08:38.708Z,155341.72
2022-10-16T14:11:06.387Z,155343.03
2022-10-16T14:13:38.186Z,155331.38
2022-10-16T14:16:09.386Z,155298.84
2022-10-16T14:18:39.352Z,154774.75
2022-10-16T14:21:08.319Z,135878.69
2022-10-16T14:23:39.650Z,126414.50
2022-10-16T14:26:14.474Z,101630.44
2022-10-16T14:28:43.204Z,93288.97
2022-10-16T14:31:27.631Z,97113.13
2022-10-16T14:33:55.820Z,88106.84
2022-10-16T14:36:24.226Z,78752.09
2022-10-16T14:39:01.380Z,74945.91
2022-10-16T14:41:29.580Z,73908.50
2022-10-16T14:43:59.995Z,72184.28
2022-10-16T14:46:33.730Z,69422.91
2022-10-16T14:49:05.903Z,66666.44
2022-10-16T14:51:33.380Z,65288.91
2022-10-16T14:54:02.692Z,64259.41
2022-10-16T14:56:33.408Z,65636.00
2022-10-16T14:59:02.306Z,67705.16
2022-10-16T15:01:29.730Z,69765.34
2022-10-16T15:03:57.238Z,79758.56
2022-10-16T15:06:24.699Z,80784.94
2022-10-16T15:08:52.176Z,78363.53
2022-10-16T15:11:21.551Z,81117.97
2022-10-16T15:13:49.045Z,84922.28
2022-10-16T15:16:17.758Z,94288.31
2022-10-16T15:18:45.802Z,104719.88
2022-10-16T15:21:24.363Z,102945.34
2022-10-16T15:23:52.009Z,94935.66
2022-10-16T15:26:20.859Z,76939.88
2022-10-16T15:28:48.363Z,75563.97
2022-10-16T15:31:15.959Z,81084.00
2022-10-16T15:33:43.423Z,67963.50
2022-10-16T15:36:10.983Z,64852.41
2022-10-16T15:38:38.415Z,60042.31
2022-10-16T15:41:06.195Z,55913.34
2022-10-16T15:43:35.102Z,52825.25
2022-10-16T15:46:06.466Z,50424.03
2022-10-16T15:48:34.502Z,48026.16
2022-10-16T15:51:02.311Z,46999.88
2022-10-16T15:53:29.806Z,46311.09
2022-10-16T15:55:57.254Z,45291.03
2022-10-16T15:58:25.248Z,45301.41
2022-10-16T16:00:58.005Z,45296.44
2022-10-16T16:03:25.924Z,44620.31
2022-10-16T16:05:53.430Z,44947.88
2022-10-16T16:08:21.224Z,43927.38
2022-10-16T16:10:59.250Z,44605.91
2022-10-16T16:13:26.710Z,44594.16
2022-10-16T16:15:54.171Z,43898.22
2022-10-16T16:18:24.675Z,42873.88
2022-10-16T16:20:52.158Z,42519.00
2022-10-16T16:23:20.723Z,41496.94
2022-10-16T16:26:04.513Z,40807.34
2022-10-16T16:28:32.193Z,40802.81
2022-10-16T16:30:59.757Z,40784.34
2022-10-16T16:33:28.627Z,40100.34
2022-10-16T16:35:59.496Z,39077.34
2022-10-16T16:38:27.573Z,38734.81
2022-10-16T16:40:56.450Z,38389.06
2022-10-16T16:43:25.166Z,37705.09
2022-10-16T16:45:52.672Z,37696.69
2022-10-16T16:48:20.151Z,37352.34
2022-10-16T16:50:48.948Z,37011.00
2022-10-16T16:53:16.613Z,35991.66
2022-10-16T16:55:44.203Z,35988.56
2022-10-16T16:58:11.986Z,35650.25
2022-10-16T17:00:56.477Z,34632.41
2022-10-16T17:03:24.872Z,34965.22
2022-10-16T17:06:00.547Z,34961.63
2022-10-16T17:08:28.118Z,34281.81
2022-10-16T17:10:56.028Z,33943.16
2022-10-16T17:13:24.075Z,33260.78
2022-10-16T17:15:52.140Z,33247.31
2022-10-16T17:18:20.135Z,32238.97
2022-10-16T17:20:47.951Z,31220.56
2022-10-16T17:23:18.564Z,30215.78
2022-10-16T17:25:46.711Z,30546.34
2022-10-16T17:28:15.438Z,30202.41
2022-10-16T17:30:45.340Z,29526.34
2022-10-16T17:33:13.939Z,29525.06
2022-10-16T17:35:42.962Z,28850.41
2022-10-16T17:38:11.299Z,28845.13
2022-10-16T17:40:40.902Z,28843.38
2022-10-16T17:43:08.514Z,28842.63
2022-10-16T17:45:38.472Z,28846.13
2022-10-16T17:48:06.424Z,28841.38
2022-10-16T17:50:33.902Z,28840.13
2022-10-16T17:53:01.392Z,29509.69
2022-10-16T17:55:28.848Z,29172.41
2022-10-16T17:57:58.488Z,29837.97
2022-10-16T18:00:26.268Z,29162.53
2022-10-16T18:02:53.736Z,28826.59
2022-10-16T18:05:21.274Z,28491.41
2022-10-16T18:07:48.753Z,28488.19
2022-10-16T18:10:18.848Z,28155.97
2022-10-16T18:12:48.527Z,27145.06
2022-10-16T18:15:17.369Z,27484.78
2022-10-16T18:17:44.858Z,25802.69
2022-10-16T18:20:12.983Z,27149.09
2022-10-16T18:22:40.472Z,27152.16
2022-10-16T18:25:08.843Z,25807.44
2022-10-16T18:27:36.635Z,26817.09
2022-10-16T18:30:04.575Z,26811.47
2022-10-16T18:32:35.672Z,27146.47
2022-10-16T18:35:03.229Z,27147.19
2022-10-16T18:37:30.964Z,27144.81
2022-10-16T18:39:58.502Z,27479.78
2022-10-16T18:42:25.953Z,27478.09
2022-10-16T18:44:53.402Z,27481.22
2022-10-16T18:47:20.881Z,27480.25
2022-10-16T18:49:51.046Z,27477.84
2022-10-16T18:52:18.964Z,27480.25
2022-10-16T18:54:46.428Z,28144.72
2022-10-16T18:57:13.896Z,28148.63
2022-10-16T18:59:41.392Z,28145.19
2022-10-16T19:02:10.436Z,27810.59
2022-10-16T19:04:37.892Z,27814.47
2022-10-16T19:07:06.663Z,27809.63
2022-10-16T19:09:34.089Z,28477.81
2022-10-16T19:12:03.008Z,28814.34
2022-10-16T19:14:32.531Z,27805.25
2022-10-16T19:17:00.264Z,27807.94
2022-10-16T19:19:27.771Z,27805.25
2022-10-16T19:22:11.231Z,27806.22
2022-10-16T19:24:40.599Z,27136.31
2022-10-16T19:27:08.855Z,25458.28
2022-10-16T19:29:36.299Z,26133.16
2022-10-16T19:32:06.646Z,25462.72
2022-10-16T19:34:35.031Z,25128.13
2022-10-16T19:37:02.748Z,25122.19
2022-10-16T19:39:30.217Z,24453.25
2022-10-16T19:41:59.056Z,23776.22
2022-10-16T19:44:27.041Z,23442.44
2022-10-16T19:46:54.550Z,23776.66
2022-10-16T19:49:22.064Z,22773.31
2022-10-16T19:51:51.584Z,22436.22
2022-10-16T19:54:19.123Z,22430.47
2022-10-16T19:56:46.967Z,23104.13
2022-10-16T19:59:18.946Z,23101.69
2022-10-16T20:01:47.133Z,23103.94
2022-10-16T20:04:14.922Z,21761.69
2022-10-16T20:06:42.463Z,22771.31
2022-10-16T20:09:10.052Z,22771.31
2022-10-16T20:11:38.323Z,23110.25
2022-10-16T20:14:06.567Z,23441.00
2022-10-16T20:16:35.642Z,23439.97
2022-10-16T20:19:05.062Z,23777.06
2022-10-16T20:21:34.401Z,23778.53
2022-10-16T20:24:04.282Z,23779.16
2022-10-16T20:26:31.954Z,24449.63
2022-10-16T20:28:59.485Z,24451.13
2022-10-16T20:31:28.652Z,24450.25
2022-10-16T20:33:59.496Z,24459.72
2022-10-16T20:36:30.423Z,24461.00
2022-10-16T20:38:58.531Z,25471.63
2022-10-16T20:41:26.172Z,25476.34
2022-10-16T20:43:55.618Z,26483.63
2022-10-16T21:00:55.370Z,28512.22
2022-10-16T21:03:22.815Z,29180.75
2022-10-16T21:05:50.263Z,29177.47
2022-10-16T21:08:17.708Z,29847.28
2022-10-16T21:10:45.167Z,29842.09
2022-10-16T21:13:12.695Z,29502.78
2022-10-16T21:15:40.142Z,30499.00
2022-10-16T21:18:08.953Z,30159.25
2022-10-16T21:20:36.491Z,29814.94
2022-10-16T21:23:04.237Z,29477.72
2022-10-16T21:25:31.695Z,30141.22
2022-10-16T21:27:59.131Z,29138.72
2022-10-16T21:30:26.814Z,29131.13
2022-10-16T21:32:54.294Z,28796.31
2022-10-16T21:35:23.081Z,29459.53
2022-10-16T21:37:50.781Z,29121.00
2022-10-16T21:40:18.378Z,29455.44
2022-10-16T21:42:45.811Z,29115.69
2022-10-16T21:45:13.245Z,29117.97
2022-10-16T21:47:40.833Z,28779.28
2022-10-16T21:50:08.852Z,29111.66
2022-10-16T21:52:37.690Z,29445.47
2022-10-16T21:55:05.672Z,29445.47
2022-10-16T21:57:33.204Z,28778.28
2022-10-16T22:00:02.218Z,29107.34
2022-10-16T22:02:31.835Z,29110.91
2022-10-16T22:04:59.271Z,29779.00
2022-10-16T22:07:26.953Z,29436.28
2022-10-16T22:09:56.142Z,29774.63
2022-10-16T22:12:23.579Z,28432.75
2022-10-16T22:14:51.007Z,28095.28
2022-10-16T22:17:18.496Z,28096.97
2022-10-16T22:19:45.940Z,28769.78
2022-10-16T22:22:13.993Z,29104.56
2022-10-16T22:24:41.479Z,29101.78
2022-10-16T22:27:10.318Z,28766.53
2022-10-16T22:29:37.834Z,27422.84
2022-10-16T22:32:05.606Z,27421.88
2022-10-16T22:34:33.059Z,28098.69
2022-10-16T22:37:00.514Z,28432.25
2022-10-16T22:39:28.827Z,28428.31
2022-10-16T22:41:56.271Z,28431.28
2022-10-16T22:44:25.831Z,28762.28
2022-10-16T22:46:53.289Z,28761.78
2022-10-16T22:49:20.741Z,28762.53
2022-10-16T22:51:48.497Z,28427.56
2022-10-16T22:54:16.211Z,28759.78
2022-10-16T22:56:43.729Z,28424.84
2022-10-16T22:59:11.598Z,27755.41
2022-10-16T23:01:43.099Z,28754.28
2022-10-16T23:04:10.549Z,28752.28
2022-10-16T23:06:38.087Z,28747.28
2022-10-16T23:09:05.570Z,26727.59
2022-10-16T23:11:33.103Z,27055.22
2022-10-16T23:14:00.566Z,28735.28
2022-10-16T23:16:28.050Z,29067.66
2022-10-16T23:18:56.861Z,28742.78
2022-10-16T23:21:26.773Z,29077.03
2022-10-16T23:23:55.303Z,28736.78
2022-10-16T23:26:25.587Z,29410.72
2022-10-16T23:28:53.479Z,29080.06
2022-10-16T23:31:21.208Z,28407.53
2022-10-16T23:33:48.646Z,29072.47
2022-10-16T23:36:20.126Z,29074.50
2022-10-16T23:38:48.361Z,29069.44
2022-10-16T23:41:16.736Z,29072.47
2022-10-16T23:43:44.218Z,28069.84
2022-10-16T23:46:13.270Z,27738.03
2022-10-16T23:48:41.503Z,28404.81
2022-10-16T23:51:10.266Z,29075.00
2022-10-16T23:53:39.122Z,29407.16
2022-10-16T23:56:06.885Z,28737.28
2022-10-16T23:58:34.380Z,29742.59
